DLH8MW EDDF-LIPZ
Flight info
| Callsign | DLH8MW |
|---|---|
| Flight time | 1h 4m |
| Altitude | 31000 |
| Route | ANEKI2L ANEKI Y163 NATOR DCT TRA DCT ARGAX DCT RESIA/N0375F190 P131 ADOSA L612 ALBET |
| Aircraft | A21N/M-SDE2E3FGHIRWXY/LB1 |
Departure
| Time | 2026-04-15 03:07 |
|---|---|
| Airport | Frankfurt Main Airport (EDDF) |
Arrival
| Time | 2026-04-15 04:11 |
|---|---|
| Airport | Venice Marco Polo Airport (LIPZ) |
| Time | Latitude | Longitude | Altitude | Speed | Heading |
|---|---|---|---|---|---|
| 2026-04-15 02:54 | 50.04851 | 8.56948 | 349 ft | 0 kts | 295° |
| 2026-04-15 02:58 | 50.04851 | 8.56949 | 348 ft | 2 kts | 295° |
| 2026-04-15 02:58 | 50.04843 | 8.56975 | 359 ft | 3 kts | 295° |
| 2026-04-15 02:59 | 50.04835 | 8.57001 | 359 ft | 3 kts | 295° |
| 2026-04-15 02:59 | 50.04829 | 8.57028 | 359 ft | 3 kts | 281° |
| 2026-04-15 02:59 | 50.04830 | 8.57056 | 359 ft | 3 kts | 233° |
| 2026-04-15 02:59 | 50.04835 | 8.57065 | 359 ft | 0 kts | 205° |
| 2026-04-15 03:01 | 50.04820 | 8.57055 | 357 ft | 7 kts | 206° |
| 2026-04-15 03:01 | 50.04750 | 8.57005 | 354 ft | 18 kts | 205° |
| 2026-04-15 03:02 | 50.04593 | 8.56906 | 352 ft | 28 kts | 193° |
| 2026-04-15 03:02 | 50.04443 | 8.56782 | 358 ft | 23 kts | 244° |
| 2026-04-15 03:02 | 50.04383 | 8.56541 | 357 ft | 28 kts | 250° |
| 2026-04-15 03:02 | 50.04305 | 8.56210 | 353 ft | 33 kts | 250° |
| 2026-04-15 03:03 | 50.04225 | 8.55875 | 356 ft | 33 kts | 248° |
| 2026-04-15 03:03 | 50.04147 | 8.55554 | 356 ft | 32 kts | 249° |
| 2026-04-15 03:03 | 50.04071 | 8.55235 | 353 ft | 31 kts | 250° |
| 2026-04-15 03:03 | 50.03996 | 8.54923 | 354 ft | 30 kts | 249° |
| 2026-04-15 03:04 | 50.03923 | 8.54616 | 356 ft | 30 kts | 249° |
| 2026-04-15 03:04 | 50.03839 | 8.54324 | 353 ft | 29 kts | 236° |
| 2026-04-15 03:04 | 50.03757 | 8.54044 | 354 ft | 28 kts | 250° |
| 2026-04-15 03:04 | 50.03689 | 8.53763 | 359 ft | 28 kts | 249° |
| 2026-04-15 03:05 | 50.03621 | 8.53487 | 357 ft | 27 kts | 249° |
| 2026-04-15 03:05 | 50.03558 | 8.53219 | 352 ft | 27 kts | 249° |
| 2026-04-15 03:05 | 50.03494 | 8.52952 | 354 ft | 26 kts | 250° |
| 2026-04-15 03:05 | 50.03438 | 8.52750 | 353 ft | 13 kts | 247° |
| 2026-04-15 03:06 | 50.03400 | 8.52621 | 359 ft | 13 kts | 228° |
| 2026-04-15 03:06 | 50.03325 | 8.52595 | 354 ft | 11 kts | 179° |
| 2026-04-15 03:06 | 50.03053 | 8.52598 | 349 ft | 71 kts | 179° |
| 2026-04-15 03:06 | 50.02337 | 8.52608 | 356 ft | 137 kts | 180° |
| 2026-04-15 03:07 | 50.01211 | 8.52616 | 427 ft | 178 kts | 180° |
| 2026-04-15 03:07 | 50.00033 | 8.52600 | 1205 ft | 170 kts | 178° |
| 2026-04-15 03:07 | 49.98803 | 8.52679 | 1745 ft | 176 kts | 175° |
| 2026-04-15 03:07 | 49.97558 | 8.52792 | 2314 ft | 188 kts | 174° |
| 2026-04-15 03:08 | 49.96159 | 8.52917 | 2677 ft | 212 kts | 175° |
| 2026-04-15 03:08 | 49.94629 | 8.53037 | 3241 ft | 228 kts | 175° |
| 2026-04-15 03:08 | 49.93019 | 8.53151 | 4056 ft | 233 kts | 176° |
| 2026-04-15 03:08 | 49.91382 | 8.53263 | 4868 ft | 238 kts | 176° |
| 2026-04-15 03:09 | 49.89727 | 8.53375 | 5646 ft | 242 kts | 176° |
| 2026-04-15 03:09 | 49.88041 | 8.53488 | 6516 ft | 243 kts | 177° |
| 2026-04-15 03:09 | 49.86343 | 8.53601 | 7324 ft | 245 kts | 178° |
| 2026-04-15 03:09 | 49.84628 | 8.53716 | 8115 ft | 248 kts | 178° |
| 2026-04-15 03:10 | 49.82890 | 8.53832 | 8896 ft | 252 kts | 178° |
| 2026-04-15 03:10 | 49.81130 | 8.53950 | 9686 ft | 255 kts | 178° |
| 2026-04-15 03:10 | 49.79340 | 8.54070 | 10442 ft | 259 kts | 178° |
| 2026-04-15 03:10 | 49.77519 | 8.54049 | 11096 ft | 267 kts | 183° |
| 2026-04-15 03:11 | 49.75589 | 8.53837 | 11413 ft | 289 kts | 185° |
| 2026-04-15 03:11 | 49.73534 | 8.53560 | 11699 ft | 311 kts | 185° |
| 2026-04-15 03:11 | 49.71302 | 8.53254 | 11989 ft | 333 kts | 185° |
| 2026-04-15 03:11 | 49.68920 | 8.52932 | 12276 ft | 353 kts | 185° |
| 2026-04-15 03:12 | 49.66409 | 8.52596 | 12594 ft | 371 kts | 185° |
| 2026-04-15 03:12 | 49.63795 | 8.52249 | 13131 ft | 381 kts | 185° |
| 2026-04-15 03:12 | 49.61131 | 8.51897 | 13782 ft | 387 kts | 185° |
| 2026-04-15 03:12 | 49.58429 | 8.51540 | 14407 ft | 393 kts | 185° |
| 2026-04-15 03:13 | 49.55688 | 8.51179 | 15033 ft | 397 kts | 185° |
| 2026-04-15 03:13 | 49.52917 | 8.50815 | 15664 ft | 401 kts | 185° |
| 2026-04-15 03:13 | 49.50117 | 8.50447 | 16278 ft | 406 kts | 185° |
| 2026-04-15 03:13 | 49.47286 | 8.50076 | 16885 ft | 410 kts | 185° |
| 2026-04-15 03:14 | 49.44457 | 8.49706 | 17471 ft | 415 kts | 185° |
| 2026-04-15 03:14 | 49.41568 | 8.49327 | 18049 ft | 419 kts | 185° |
| 2026-04-15 03:14 | 49.38643 | 8.48945 | 18605 ft | 424 kts | 185° |
| 2026-04-15 03:14 | 49.35690 | 8.48560 | 19093 ft | 428 kts | 185° |
| 2026-04-15 03:15 | 49.32711 | 8.48172 | 19571 ft | 432 kts | 185° |
| 2026-04-15 03:15 | 49.29696 | 8.47780 | 20052 ft | 435 kts | 185° |
| 2026-04-15 03:15 | 49.26662 | 8.47385 | 20522 ft | 439 kts | 185° |
| 2026-04-15 03:15 | 49.23602 | 8.46987 | 20988 ft | 443 kts | 185° |
| 2026-04-15 03:16 | 49.20516 | 8.46586 | 21429 ft | 446 kts | 185° |
| 2026-04-15 03:16 | 49.17406 | 8.46181 | 21866 ft | 450 kts | 185° |
| 2026-04-15 03:16 | 49.14270 | 8.45774 | 22308 ft | 454 kts | 185° |
| 2026-04-15 03:16 | 49.11105 | 8.45364 | 22751 ft | 458 kts | 185° |
| 2026-04-15 03:17 | 49.07958 | 8.44923 | 23194 ft | 461 kts | 187° |
| 2026-04-15 03:17 | 49.04783 | 8.44105 | 23635 ft | 465 kts | 191° |
| 2026-04-15 03:17 | 49.01600 | 8.43122 | 24026 ft | 468 kts | 193° |
| 2026-04-15 03:17 | 48.98393 | 8.42048 | 24363 ft | 472 kts | 193° |
| 2026-04-15 03:18 | 48.95177 | 8.40926 | 24681 ft | 476 kts | 194° |
| 2026-04-15 03:18 | 48.91939 | 8.39780 | 25026 ft | 480 kts | 194° |
| 2026-04-15 03:18 | 48.88670 | 8.38622 | 25367 ft | 483 kts | 194° |
| 2026-04-15 03:18 | 48.85374 | 8.37463 | 25694 ft | 486 kts | 194° |
| 2026-04-15 03:19 | 48.82066 | 8.36307 | 26013 ft | 489 kts | 194° |
| 2026-04-15 03:19 | 48.78737 | 8.35148 | 26324 ft | 492 kts | 194° |
| 2026-04-15 03:19 | 48.75424 | 8.33965 | 26598 ft | 496 kts | 194° |
| 2026-04-15 03:19 | 48.72052 | 8.32739 | 26910 ft | 498 kts | 194° |
| 2026-04-15 03:20 | 48.68686 | 8.31504 | 27316 ft | 498 kts | 194° |
| 2026-04-15 03:20 | 48.65315 | 8.30267 | 27718 ft | 498 kts | 194° |
| 2026-04-15 03:20 | 48.61947 | 8.29034 | 28108 ft | 498 kts | 194° |
| 2026-04-15 03:20 | 48.58579 | 8.27805 | 28495 ft | 498 kts | 194° |
| 2026-04-15 03:21 | 48.55208 | 8.26579 | 28845 ft | 498 kts | 194° |
| 2026-04-15 03:21 | 48.48349 | 8.25068 | 29555 ft | 500 kts | 179° |
| 2026-04-15 03:21 | 48.44882 | 8.25417 | 29901 ft | 500 kts | 173° |
| 2026-04-15 03:22 | 48.41473 | 8.26063 | 30253 ft | 500 kts | 171° |
| 2026-04-15 03:22 | 48.38026 | 8.26863 | 30538 ft | 500 kts | 169° |
| 2026-04-15 03:22 | 48.34588 | 8.27728 | 30798 ft | 501 kts | 169° |
| 2026-04-15 03:22 | 48.31141 | 8.28612 | 31042 ft | 502 kts | 169° |
| 2026-04-15 03:23 | 48.27689 | 8.29492 | 31225 ft | 504 kts | 169° |
| 2026-04-15 03:23 | 48.24237 | 8.30357 | 31239 ft | 503 kts | 169° |
| 2026-04-15 03:23 | 48.17332 | 8.32048 | 31240 ft | 502 kts | 169° |
| 2026-04-15 03:24 | 48.10428 | 8.33720 | 31244 ft | 503 kts | 169° |
| 2026-04-15 03:24 | 48.03556 | 8.35382 | 31238 ft | 503 kts | 169° |
| 2026-04-15 03:25 | 47.96643 | 8.37051 | 31240 ft | 503 kts | 169° |
| 2026-04-15 03:25 | 47.89730 | 8.38716 | 31237 ft | 503 kts | 169° |
| 2026-04-15 03:26 | 47.82815 | 8.40377 | 31232 ft | 504 kts | 169° |
| 2026-04-15 03:26 | 47.75889 | 8.42036 | 31229 ft | 504 kts | 169° |
| 2026-04-15 03:27 | 47.69226 | 8.44948 | 31227 ft | 495 kts | 149° |
| 2026-04-15 03:27 | 47.66343 | 8.47551 | 31218 ft | 487 kts | 137° |
| 2026-04-15 03:27 | 47.63717 | 8.50705 | 31215 ft | 485 kts | 134° |
| 2026-04-15 03:28 | 47.58719 | 8.57405 | 31213 ft | 484 kts | 131° |
| 2026-04-15 03:28 | 47.53813 | 8.64233 | 31213 ft | 484 kts | 131° |
| 2026-04-15 03:29 | 47.48880 | 8.71025 | 31207 ft | 484 kts | 132° |
| 2026-04-15 03:29 | 47.43913 | 8.77769 | 31234 ft | 484 kts | 132° |
| 2026-04-15 03:30 | 47.38959 | 8.84449 | 31210 ft | 481 kts | 132° |
| 2026-04-15 03:30 | 47.34042 | 8.91061 | 31210 ft | 481 kts | 132° |
| 2026-04-15 03:31 | 47.29091 | 8.97707 | 31208 ft | 481 kts | 132° |
| 2026-04-15 03:31 | 47.24137 | 9.04340 | 31200 ft | 481 kts | 133° |
| 2026-04-15 03:32 | 47.19184 | 9.10955 | 31198 ft | 481 kts | 132° |
| 2026-04-15 03:32 | 47.14266 | 9.17506 | 31198 ft | 478 kts | 133° |
| 2026-04-15 03:33 | 47.09335 | 9.24054 | 31198 ft | 478 kts | 133° |
| 2026-04-15 03:33 | 47.04392 | 9.30603 | 31203 ft | 478 kts | 133° |
| 2026-04-15 03:34 | 46.99451 | 9.37130 | 31196 ft | 478 kts | 133° |
| 2026-04-15 03:34 | 46.94514 | 9.43636 | 31203 ft | 477 kts | 133° |
| 2026-04-15 03:35 | 46.89588 | 9.50108 | 31192 ft | 474 kts | 134° |
| 2026-04-15 03:35 | 46.84708 | 9.56503 | 31192 ft | 474 kts | 134° |
| 2026-04-15 03:36 | 46.79792 | 9.62934 | 31175 ft | 474 kts | 134° |
| 2026-04-15 03:36 | 46.74868 | 9.69357 | 31173 ft | 473 kts | 134° |
| 2026-04-15 03:37 | 46.69961 | 9.75740 | 31167 ft | 472 kts | 134° |
| 2026-04-15 03:37 | 46.65070 | 9.82086 | 31157 ft | 470 kts | 135° |
| 2026-04-15 03:38 | 46.60220 | 9.88366 | 31157 ft | 469 kts | 135° |
| 2026-04-15 03:38 | 46.55337 | 9.94671 | 31159 ft | 469 kts | 135° |
| 2026-04-15 03:39 | 46.50456 | 10.00957 | 31157 ft | 468 kts | 135° |
| 2026-04-15 03:39 | 46.45545 | 10.07156 | 31154 ft | 468 kts | 137° |
| 2026-04-15 03:40 | 46.40565 | 10.13138 | 31150 ft | 465 kts | 138° |
| 2026-04-15 03:40 | 46.35570 | 10.19066 | 31138 ft | 463 kts | 138° |
| 2026-04-15 03:41 | 46.30590 | 10.24988 | 31139 ft | 463 kts | 138° |
| 2026-04-15 03:41 | 46.25640 | 10.30884 | 31129 ft | 463 kts | 138° |
| 2026-04-15 03:42 | 46.20668 | 10.36797 | 31132 ft | 463 kts | 138° |
| 2026-04-15 03:42 | 46.15696 | 10.42698 | 31123 ft | 461 kts | 139° |
| 2026-04-15 03:43 | 46.10760 | 10.48535 | 31122 ft | 458 kts | 139° |
| 2026-04-15 03:43 | 46.06665 | 10.53367 | 31119 ft | 457 kts | 139° |
| 2026-04-15 03:44 | 46.00933 | 10.60113 | 31124 ft | 457 kts | 139° |
| 2026-04-15 03:44 | 45.96007 | 10.65897 | 31121 ft | 457 kts | 139° |
| 2026-04-15 03:45 | 45.91897 | 10.70711 | 31121 ft | 457 kts | 139° |
| 2026-04-15 03:45 | 45.86965 | 10.76472 | 31124 ft | 455 kts | 140° |
| 2026-04-15 03:46 | 45.82065 | 10.82183 | 31122 ft | 452 kts | 141° |
| 2026-04-15 03:46 | 45.77212 | 10.87831 | 31105 ft | 452 kts | 141° |
| 2026-04-15 03:47 | 45.72330 | 10.93503 | 30685 ft | 453 kts | 141° |
| 2026-04-15 03:47 | 45.69878 | 10.96348 | 29718 ft | 454 kts | 142° |
| 2026-04-15 03:47 | 45.67424 | 10.99190 | 28251 ft | 454 kts | 141° |
| 2026-04-15 03:48 | 45.65080 | 11.02240 | 26511 ft | 460 kts | 131° |
| 2026-04-15 03:48 | 45.63064 | 11.05829 | 24826 ft | 465 kts | 127° |
| 2026-04-15 03:48 | 45.61192 | 11.09613 | 23365 ft | 464 kts | 124° |
| 2026-04-15 03:48 | 45.59433 | 11.13450 | 21952 ft | 458 kts | 123° |
| 2026-04-15 03:49 | 45.57762 | 11.17261 | 20643 ft | 449 kts | 123° |
| 2026-04-15 03:49 | 45.56121 | 11.21010 | 19393 ft | 440 kts | 123° |
| 2026-04-15 03:49 | 45.54518 | 11.24636 | 18150 ft | 434 kts | 123° |
| 2026-04-15 03:49 | 45.52920 | 11.28220 | 16933 ft | 422 kts | 123° |
| 2026-04-15 03:50 | 45.51351 | 11.31718 | 15835 ft | 411 kts | 123° |
| 2026-04-15 03:50 | 45.49865 | 11.35017 | 15675 ft | 377 kts | 123° |
| 2026-04-15 03:50 | 45.48508 | 11.38028 | 15697 ft | 344 kts | 123° |
| 2026-04-15 03:50 | 45.47265 | 11.40778 | 15704 ft | 315 kts | 123° |
| 2026-04-15 03:51 | 45.46141 | 11.43261 | 15704 ft | 290 kts | 123° |
| 2026-04-15 03:51 | 45.45013 | 11.45748 | 15514 ft | 312 kts | 123° |
| 2026-04-15 03:51 | 45.43788 | 11.48442 | 14954 ft | 331 kts | 123° |
| 2026-04-15 03:51 | 45.42451 | 11.51160 | 14179 ft | 338 kts | 129° |
| 2026-04-15 03:52 | 45.40909 | 11.53736 | 13359 ft | 344 kts | 131° |
| 2026-04-15 03:52 | 45.39296 | 11.56294 | 12492 ft | 349 kts | 131° |
| 2026-04-15 03:52 | 45.37659 | 11.58870 | 11696 ft | 353 kts | 131° |
| 2026-04-15 03:52 | 45.36020 | 11.61483 | 10903 ft | 355 kts | 128° |
| 2026-04-15 03:53 | 45.34758 | 11.64484 | 10111 ft | 355 kts | 108° |
| 2026-04-15 03:53 | 45.34385 | 11.67927 | 9282 ft | 353 kts | 89° |
| 2026-04-15 03:53 | 45.34493 | 11.71422 | 8452 ft | 353 kts | 85° |
| 2026-04-15 03:53 | 45.34680 | 11.74898 | 7644 ft | 352 kts | 85° |
| 2026-04-15 03:54 | 45.34863 | 11.78317 | 6858 ft | 350 kts | 85° |
| 2026-04-15 03:54 | 45.34973 | 11.81780 | 6046 ft | 349 kts | 92° |
| 2026-04-15 03:54 | 45.34347 | 11.85092 | 5223 ft | 349 kts | 116° |
| 2026-04-15 03:55 | 45.31027 | 11.90056 | 3655 ft | 352 kts | 150° |
| 2026-04-15 03:55 | 45.28680 | 11.90920 | 3238 ft | 348 kts | 176° |
| 2026-04-15 03:55 | 45.26400 | 11.90276 | 3052 ft | 336 kts | 203° |
| 2026-04-15 03:55 | 45.24611 | 11.88312 | 3013 ft | 318 kts | 227° |
| 2026-04-15 03:56 | 45.23246 | 11.85965 | 2995 ft | 297 kts | 229° |
| 2026-04-15 03:56 | 45.21957 | 11.83816 | 2999 ft | 276 kts | 226° |
| 2026-04-15 03:56 | 45.20682 | 11.81875 | 2995 ft | 262 kts | 224° |
| 2026-04-15 03:56 | 45.19394 | 11.80055 | 2995 ft | 261 kts | 222° |
| 2026-04-15 03:57 | 45.18073 | 11.78281 | 3004 ft | 262 kts | 220° |
| 2026-04-15 03:57 | 45.16743 | 11.76550 | 3003 ft | 263 kts | 220° |
| 2026-04-15 03:57 | 45.15394 | 11.74827 | 2994 ft | 258 kts | 220° |
| 2026-04-15 03:57 | 45.14063 | 11.73140 | 2993 ft | 256 kts | 220° |
| 2026-04-15 03:58 | 45.12697 | 11.71593 | 3026 ft | 243 kts | 207° |
| 2026-04-15 03:58 | 45.11150 | 11.70938 | 3007 ft | 228 kts | 175° |
| 2026-04-15 03:58 | 45.09666 | 11.71498 | 2994 ft | 219 kts | 144° |
| 2026-04-15 03:58 | 45.08526 | 11.72889 | 3005 ft | 216 kts | 129° |
| 2026-04-15 03:59 | 45.07528 | 11.74483 | 2998 ft | 216 kts | 125° |
| 2026-04-15 03:59 | 45.06780 | 11.76289 | 3001 ft | 211 kts | 105° |
| 2026-04-15 03:59 | 45.06649 | 11.78316 | 2990 ft | 207 kts | 78° |
| 2026-04-15 03:59 | 45.07203 | 11.80151 | 2998 ft | 207 kts | 53° |
| 2026-04-15 04:00 | 45.08205 | 11.81627 | 2993 ft | 209 kts | 44° |
| 2026-04-15 04:00 | 45.09303 | 11.82983 | 2993 ft | 210 kts | 42° |
| 2026-04-15 04:00 | 45.10410 | 11.84326 | 2992 ft | 210 kts | 42° |
| 2026-04-15 04:00 | 45.11515 | 11.85679 | 3006 ft | 210 kts | 43° |
| 2026-04-15 04:01 | 45.12615 | 11.87041 | 3006 ft | 210 kts | 43° |
| 2026-04-15 04:01 | 45.13713 | 11.88410 | 3000 ft | 210 kts | 43° |
| 2026-04-15 04:01 | 45.14802 | 11.89773 | 2991 ft | 211 kts | 43° |
| 2026-04-15 04:01 | 45.15896 | 11.91145 | 2990 ft | 207 kts | 44° |
| 2026-04-15 04:02 | 45.16965 | 11.92487 | 2980 ft | 204 kts | 44° |
| 2026-04-15 04:02 | 45.18027 | 11.93824 | 2991 ft | 203 kts | 44° |
| 2026-04-15 04:02 | 45.19084 | 11.95154 | 2982 ft | 203 kts | 44° |
| 2026-04-15 04:02 | 45.20141 | 11.96484 | 2984 ft | 202 kts | 44° |
| 2026-04-15 04:03 | 45.21192 | 11.97810 | 3000 ft | 202 kts | 43° |
| 2026-04-15 04:03 | 45.22262 | 11.99115 | 2993 ft | 203 kts | 43° |
| 2026-04-15 04:03 | 45.23324 | 12.00414 | 3000 ft | 203 kts | 44° |
| 2026-04-15 04:03 | 45.24389 | 12.01745 | 2994 ft | 203 kts | 44° |
| 2026-04-15 04:04 | 45.25450 | 12.03074 | 3010 ft | 204 kts | 44° |
| 2026-04-15 04:04 | 45.26513 | 12.04418 | 3020 ft | 206 kts | 43° |
| 2026-04-15 04:04 | 45.27591 | 12.05797 | 3034 ft | 210 kts | 44° |
| 2026-04-15 04:04 | 45.28678 | 12.07191 | 3046 ft | 211 kts | 43° |
| 2026-04-15 04:05 | 45.29766 | 12.08585 | 3060 ft | 211 kts | 43° |
| 2026-04-15 04:05 | 45.30842 | 12.09959 | 3071 ft | 210 kts | 43° |
| 2026-04-15 04:05 | 45.31933 | 12.11353 | 3081 ft | 211 kts | 43° |
| 2026-04-15 04:05 | 45.33023 | 12.12745 | 3082 ft | 210 kts | 44° |
| 2026-04-15 04:06 | 45.34103 | 12.14127 | 3085 ft | 208 kts | 44° |
| 2026-04-15 04:06 | 45.35176 | 12.15500 | 3093 ft | 207 kts | 44° |
| 2026-04-15 04:06 | 45.36248 | 12.16872 | 3112 ft | 207 kts | 44° |
| 2026-04-15 04:06 | 45.37323 | 12.18249 | 3126 ft | 208 kts | 44° |
| 2026-04-15 04:07 | 45.38382 | 12.19605 | 3000 ft | 207 kts | 44° |
| 2026-04-15 04:07 | 45.39450 | 12.20974 | 2715 ft | 206 kts | 44° |
| 2026-04-15 04:07 | 45.40491 | 12.22308 | 2430 ft | 196 kts | 44° |
| 2026-04-15 04:07 | 45.41469 | 12.23560 | 2150 ft | 181 kts | 44° |
| 2026-04-15 04:08 | 45.42362 | 12.24704 | 1914 ft | 164 kts | 45° |
| 2026-04-15 04:08 | 45.43180 | 12.25754 | 1694 ft | 153 kts | 45° |
| 2026-04-15 04:08 | 45.43965 | 12.26765 | 1472 ft | 152 kts | 44° |
| 2026-04-15 04:08 | 45.44749 | 12.27773 | 1295 ft | 149 kts | 44° |
| 2026-04-15 04:09 | 45.45491 | 12.28724 | 1085 ft | 139 kts | 44° |
| 2026-04-15 04:09 | 45.46193 | 12.29627 | 900 ft | 137 kts | 43° |
| 2026-04-15 04:09 | 45.46905 | 12.30543 | 723 ft | 138 kts | 42° |
| 2026-04-15 04:09 | 45.47617 | 12.31457 | 542 ft | 138 kts | 41° |
| 2026-04-15 04:10 | 45.48325 | 12.32369 | 351 ft | 137 kts | 43° |
| 2026-04-15 04:10 | 45.49026 | 12.33281 | 145 ft | 137 kts | 40° |
| 2026-04-15 04:10 | 45.49718 | 12.34163 | 13 ft | 125 kts | 44° |
| 2026-04-15 04:10 | 45.50286 | 12.34894 | 16 ft | 96 kts | 42° |
| 2026-04-15 04:11 | 45.50751 | 12.35403 | 18 ft | 72 kts | 17° |
| 2026-04-15 04:11 | 45.50973 | 12.35410 | 21 ft | 11 kts | 300° |
| 2026-04-15 04:11 | 45.50979 | 12.35354 | 25 ft | 5 kts | 276° |
| 2026-04-15 04:11 | 45.50977 | 12.35311 | 22 ft | 6 kts | 257° |
| 2026-04-15 04:12 | 45.50951 | 12.35206 | 21 ft | 12 kts | 237° |
| 2026-04-15 04:12 | 45.50878 | 12.35101 | 22 ft | 24 kts | 221° |
| 2026-04-15 04:12 | 45.50744 | 12.34930 | 18 ft | 26 kts | 223° |
| 2026-04-15 04:12 | 45.50612 | 12.34768 | 17 ft | 24 kts | 224° |
| 2026-04-15 04:13 | 45.50506 | 12.34610 | 20 ft | 17 kts | 249° |
| 2026-04-15 04:13 | 45.50532 | 12.34511 | 20 ft | 10 kts | 315° |
| 2026-04-15 04:13 | 45.50579 | 12.34433 | 18 ft | 8 kts | 297° |
| 2026-04-15 04:13 | 45.50557 | 12.34369 | 18 ft | 11 kts | 220° |
| 2026-04-15 04:14 | 45.50509 | 12.34330 | 21 ft | 4 kts | 235° |
| 2026-04-15 04:14 | 45.50493 | 12.34261 | 20 ft | 12 kts | 264° |
| 2026-04-15 04:14 | 45.50491 | 12.34204 | 20 ft | 0 kts | 265° |